createdAt,value
2018-04-12T00:00:03.666Z,38.47
2018-04-12T00:01:03.791Z,38.09
2018-04-12T00:02:03.714Z,38.37
2018-04-12T00:03:03.481Z,37.99
2018-04-12T00:04:03.764Z,37.99
2018-04-12T00:05:03.779Z,38.09
2018-04-12T00:06:03.807Z,37.68
2018-04-12T00:07:03.572Z,37.87
2018-04-12T00:08:03.595Z,37.97
2018-04-12T00:09:03.619Z,37.13
2018-04-12T00:10:03.902Z,37.6
2018-04-12T00:11:03.974Z,37.22
2018-04-12T00:12:03.690Z,37.68
2018-04-12T00:13:03.966Z,36.74
2018-04-12T00:14:03.988Z,36.65
2018-04-12T00:15:03.765Z,36.44
2018-04-12T00:16:04.039Z,36.63
2018-04-12T00:17:04.073Z,36.53
2018-04-12T00:18:03.828Z,36.44
2018-04-12T00:19:03.850Z,36.63
2018-04-12T00:20:03.872Z,36.46
2018-04-12T00:21:04.163Z,36.46
2018-04-12T00:22:03.918Z,36.16
2018-04-12T00:23:04.202Z,36.15
2018-04-12T00:24:04.209Z,36.44
2018-04-12T00:25:03.986Z,36.15
2018-04-12T00:26:04.006Z,35.96
2018-04-12T00:27:04.033Z,36.82
2018-04-12T00:28:04.058Z,36.63
2018-04-12T00:29:04.139Z,36.72
2018-04-12T00:30:04.369Z,36.82
2018-04-12T00:31:04.128Z,37.01
2018-04-12T00:32:04.449Z,36.63
2018-04-12T00:33:04.176Z,37.01
2018-04-12T00:34:04.202Z,37.01
2018-04-12T00:35:04.473Z,37.01
2018-04-12T00:36:04.240Z,37.01
2018-04-12T00:37:04.265Z,36.82
2018-04-12T00:38:04.291Z,37.01
2018-04-12T00:39:04.307Z,36.91
2018-04-12T00:40:04.593Z,37.11
2018-04-12T00:41:04.616Z,36.91
2018-04-12T00:42:04.381Z,36.82
2018-04-12T00:43:04.675Z,36.82
2018-04-12T00:44:04.728Z,37.01
2018-04-12T00:45:04.449Z,36.82
2018-04-12T00:46:04.471Z,36.91
2018-04-12T00:47:04.491Z,37.01
2018-04-12T00:48:04.795Z,36.91
2018-04-12T00:49:04.540Z,37.11
2018-04-12T00:50:04.563Z,37.01
2018-04-12T00:51:04.842Z,36.72
2018-04-12T00:52:04.608Z,37.2
2018-04-12T00:53:04.888Z,37.49
2018-04-12T00:54:04.907Z,37.2
2018-04-12T00:55:04.682Z,37.2
2018-04-12T00:56:04.957Z,37.3
2018-04-12T00:57:04.975Z,37.59
2018-04-12T00:58:04.995Z,37.87
2018-04-12T00:59:05.072Z,37.97
2018-04-12T01:00:05.050Z,37.4
2018-04-12T01:01:05.070Z,37.11
2018-04-12T01:02:05.092Z,37.2
2018-04-12T01:03:05.114Z,37.2
2018-04-12T01:04:04.885Z,37.2
2018-04-12T01:05:05.160Z,37.3
2018-04-12T01:06:05.190Z,37.78
2018-04-12T01:07:04.949Z,37.87
2018-04-12T01:08:04.972Z,37.97
2018-04-12T01:09:05.296Z,38.07
2018-04-12T01:10:05.271Z,37.87
2018-04-12T01:11:05.295Z,38.07
2018-04-12T01:12:05.313Z,38.14
2018-04-12T01:13:05.337Z,38.14
2018-04-12T01:14:05.367Z,38.14
2018-04-12T01:15:05.128Z,38.24
2018-04-12T01:16:05.403Z,38.24
2018-04-12T01:17:05.178Z,38.24
2018-04-12T01:18:05.459Z,37.95
2018-04-12T01:19:05.482Z,37.95
2018-04-12T01:20:05.245Z,37.95
2018-04-12T01:21:05.522Z,37.76
2018-04-12T01:22:05.545Z,37.38
2018-04-12T01:23:05.314Z,37.28
2018-04-12T01:24:05.639Z,37.11
2018-04-12T01:25:05.359Z,37.2
2018-04-12T01:26:05.381Z,37.11
2018-04-12T01:27:05.707Z,37.01
2018-04-12T01:28:05.426Z,36.63
2018-04-12T01:29:05.701Z,36.9
2018-04-12T01:30:05.725Z,37.01
2018-04-12T01:31:05.748Z,37.09
2018-04-12T01:32:05.519Z,37.4
2018-04-12T01:33:05.795Z,37.28
2018-04-12T01:34:05.816Z,36.99
2018-04-12T01:35:05.592Z,37.28
2018-04-12T01:36:05.865Z,37.09
2018-04-12T01:37:05.900Z,36.99
2018-04-12T01:38:05.906Z,37.09
2018-04-12T01:39:05.722Z,37.01
2018-04-12T01:40:05.949Z,36.9
2018-04-12T01:41:05.970Z,36.9
2018-04-12T01:42:06.019Z,36.8
2018-04-12T01:43:06.015Z,36.99
2018-04-12T01:44:06.036Z,37.18
2018-04-12T01:45:06.059Z,37.38
2018-04-12T01:46:06.096Z,37.18
2018-04-12T01:47:05.851Z,37.38
2018-04-12T01:48:06.127Z,37.28
2018-04-12T01:49:05.896Z,37.28
2018-04-12T01:50:06.171Z,36.99
2018-04-12T01:51:06.203Z,36.99
2018-04-12T01:52:05.965Z,37.18
2018-04-12T01:53:05.986Z,36.99
2018-04-12T01:54:06.311Z,36.8
2018-04-12T01:55:06.030Z,36.8
2018-04-12T01:56:06.050Z,36.99
2018-04-12T01:57:06.205Z,36.99
2018-04-12T01:58:06.349Z,37.09
2018-04-12T01:59:06.379Z,36.42
2018-04-12T02:00:06.398Z,36.71
2018-04-12T02:01:06.161Z,36.8
2018-04-12T02:02:06.435Z,36.99
2018-04-12T02:03:06.457Z,36.99
2018-04-12T02:04:06.484Z,36.9
2018-04-12T02:05:06.259Z,37.18
2018-04-12T02:06:06.524Z,37.28
2018-04-12T02:07:06.542Z,37.09
2018-04-12T02:08:06.564Z,37.18
2018-04-12T02:09:06.654Z,38.05
2018-04-12T02:10:06.622Z,37.16
2018-04-12T02:11:06.647Z,37.38
2018-04-12T02:12:06.411Z,36.9
2018-04-12T02:13:06.698Z,37.18
2018-04-12T02:14:06.711Z,37.18
2018-04-12T02:15:06.821Z,37.28
2018-04-12T02:16:06.753Z,37.26
2018-04-12T02:17:06.522Z,37.07
2018-04-12T02:18:06.800Z,38.05
2018-04-12T02:19:06.837Z,37.26
2018-04-12T02:20:06.593Z,37.09
2018-04-12T02:21:06.868Z,37.76
2018-04-12T02:22:06.887Z,37.47
2018-04-12T02:23:06.911Z,37.28
2018-04-12T02:24:06.932Z,37.57
2018-04-12T02:25:06.955Z,37.18
2018-04-12T02:26:06.980Z,37.16
2018-04-12T02:27:07.000Z,37.26
2018-04-12T02:28:06.771Z,37.45
2018-04-12T02:29:07.047Z,37.93
2018-04-12T02:30:07.073Z,38.03
2018-04-12T02:31:06.834Z,37.84
2018-04-12T02:32:07.126Z,37.84
2018-04-12T02:33:06.880Z,38.12
2018-04-12T02:34:07.165Z,37.93
2018-04-12T02:35:07.289Z,38.22
2018-04-12T02:36:06.947Z,38.12
2018-04-12T02:37:07.221Z,38.22
2018-04-12T02:38:07.245Z,38.22
2018-04-12T02:39:07.013Z,38.32
2018-04-12T02:40:07.287Z,38.32
2018-04-12T02:41:07.052Z,38.6
2018-04-12T02:42:07.325Z,38.51
2018-04-12T02:43:07.096Z,38.51
2018-04-12T02:44:07.117Z,38.6
2018-04-12T02:45:07.404Z,38.51
2018-04-12T02:46:07.427Z,38.51
2018-04-12T02:47:07.188Z,38.51
2018-04-12T02:48:07.208Z,38.51
2018-04-12T02:49:07.487Z,38.41
2018-04-12T02:50:07.262Z,38.51
2018-04-12T02:51:07.543Z,38.98
2018-04-12T02:52:07.312Z,38.89
2018-04-12T02:53:07.587Z,38.89
2018-04-12T02:54:07.616Z,38.79
2018-04-12T02:55:07.364Z,39.28
2018-04-12T02:56:07.388Z,39.37
2018-04-12T02:57:07.666Z,39.64
2018-04-12T02:58:07.690Z,39.73
2018-04-12T02:59:07.710Z,40.21
2018-04-12T03:00:07.731Z,40.21
2018-04-12T03:01:07.505Z,40.12
2018-04-12T03:02:07.519Z,40.12
2018-04-12T03:03:07.798Z,40.31
2018-04-12T03:04:07.819Z,40.02
2018-04-12T03:05:07.888Z,40.31
2018-04-12T03:06:07.862Z,40.69
2018-04-12T03:07:07.630Z,40.78
2018-04-12T03:08:07.915Z,40.5
2018-04-12T03:09:07.681Z,40.69
2018-04-12T03:10:07.695Z,40.5
2018-04-12T03:11:08.021Z,40.59
2018-04-12T03:12:07.737Z,40.41
2018-04-12T03:13:07.758Z,40.21
2018-04-12T03:14:07.785Z,40.5
2018-04-12T03:15:08.062Z,40.31
2018-04-12T03:16:07.820Z,40.41
2018-04-12T03:17:08.118Z,40.31
2018-04-12T03:18:07.864Z,40.78
2018-04-12T03:19:08.141Z,40.69
2018-04-12T03:20:08.160Z,40.5
2018-04-12T03:21:08.185Z,40.41
2018-04-12T03:22:08.208Z,40.59
2018-04-12T03:23:07.973Z,40.69
2018-04-12T03:24:07.997Z,40.41
2018-04-12T03:25:08.269Z,40.21
2018-04-12T03:26:08.339Z,40.31
2018-04-12T03:27:08.310Z,40.41
2018-04-12T03:28:08.334Z,40.41
2018-04-12T03:29:08.353Z,40.5
2018-04-12T03:30:08.382Z,40.31
2018-04-12T03:31:08.399Z,40.31
2018-04-12T03:32:08.165Z,40.31
2018-04-12T03:33:08.440Z,40.31
2018-04-12T03:34:08.207Z,40.59
2018-04-12T03:35:08.532Z,40.41
2018-04-12T03:36:08.510Z,40.41
2018-04-12T03:37:08.542Z,40.21
2018-04-12T03:38:08.557Z,40.21
2018-04-12T03:39:08.321Z,40.12
2018-04-12T03:40:08.618Z,40.12
2018-04-12T03:41:08.666Z,40.12
2018-04-12T03:42:08.741Z,40.31
2018-04-12T03:43:08.660Z,40.69
2018-04-12T03:44:08.689Z,40.59
2018-04-12T03:45:08.707Z,40.5
2018-04-12T03:46:08.474Z,40.69
2018-04-12T03:47:08.496Z,40.78
2018-04-12T03:48:08.768Z,40.78
2018-04-12T03:49:08.628Z,40.69
2018-04-12T03:50:08.818Z,40.69
2018-04-12T03:51:08.837Z,40.69
2018-04-12T03:52:08.860Z,40.78
2018-04-12T03:53:08.878Z,40.67
2018-04-12T03:54:08.899Z,40.69
2018-04-12T03:55:08.924Z,40.41
2018-04-12T03:56:09.091Z,40.29
2018-04-12T03:57:08.960Z,40.31
2018-04-12T03:58:08.729Z,40.12
2018-04-12T03:59:09.003Z,40.29
2018-04-12T04:00:09.035Z,40.02
2018-04-12T04:01:09.047Z,40.09
2018-04-12T04:02:09.069Z,40.12
2018-04-12T04:03:09.091Z,40.21
2018-04-12T04:04:09.110Z,40.19
2018-04-12T04:05:09.139Z,40.09
2018-04-12T04:06:09.160Z,40.09
2018-04-12T04:07:09.181Z,39.9
2018-04-12T04:08:08.951Z,40.38
2018-04-12T04:09:09.222Z,40.19
2018-04-12T04:10:09.244Z,40.19
2018-04-12T04:11:09.337Z,40.09
2018-04-12T04:12:09.293Z,40.09
2018-04-12T04:13:09.317Z,39.73
2018-04-12T04:14:09.081Z,40.12
2018-04-12T04:15:09.354Z,39.92
2018-04-12T04:16:09.378Z,39.35
2018-04-12T04:17:09.400Z,39.35
2018-04-12T04:18:09.163Z,39.54
2018-04-12T04:19:09.437Z,39.25
2018-04-12T04:20:09.461Z,38.96
2018-04-12T04:21:09.480Z,39.35
2018-04-12T04:22:09.253Z,38.96
2018-04-12T04:23:09.527Z,38.78
2018-04-12T04:24:09.553Z,38.59
2018-04-12T04:25:09.566Z,38.98
2018-04-12T04:26:09.645Z,38.7
2018-04-12T04:27:09.619Z,38.49
2018-04-12T04:28:09.385Z,38.89
2018-04-12T04:29:09.401Z,38.51
2018-04-12T04:30:09.681Z,38.6
2018-04-12T04:31:09.704Z,38.6
2018-04-12T04:32:09.723Z,38.49
2018-04-12T04:33:09.753Z,38.68
2018-04-12T04:34:09.776Z,38.79
2018-04-12T04:35:09.795Z,38.68
2018-04-12T04:36:09.810Z,38.78
2018-04-12T04:37:09.832Z,38.51
2018-04-12T04:38:09.857Z,38.89
2018-04-12T04:39:09.623Z,38.98
2018-04-12T04:40:09.645Z,38.51
2018-04-12T04:41:09.971Z,38.78
2018-04-12T04:42:09.688Z,38.78
2018-04-12T04:43:09.973Z,38.96
2018-04-12T04:44:09.987Z,38.78
2018-04-12T04:45:10.010Z,38.87
2018-04-12T04:46:09.784Z,38.68
2018-04-12T04:47:10.051Z,38.68
2018-04-12T04:48:10.102Z,38.87
2018-04-12T04:49:10.097Z,38.87
2018-04-12T04:50:10.119Z,38.49
2018-04-12T04:51:09.885Z,39.06
2018-04-12T04:52:10.165Z,38.87
2018-04-12T04:53:10.182Z,38.96
2018-04-12T04:54:10.203Z,39.16
2018-04-12T04:55:09.970Z,38.87
2018-04-12T04:56:10.296Z,39.64
2018-04-12T04:57:10.018Z,39.64
2018-04-12T04:58:10.290Z,39.35
2018-04-12T04:59:10.310Z,39.23
2018-04-12T05:00:10.080Z,39.45
2018-04-12T05:01:10.102Z,39.45
2018-04-12T05:02:10.372Z,39.64
2018-04-12T05:03:10.397Z,39.73
2018-04-12T05:04:10.420Z,39.62
2018-04-12T05:05:10.441Z,39.72
2018-04-12T05:06:10.516Z,39.72
2018-04-12T05:07:10.488Z,39.72
2018-04-12T05:08:10.505Z,39.72
2018-04-12T05:09:10.529Z,39.52
2018-04-12T05:10:10.550Z,39.62
2018-04-12T05:11:10.573Z,40
2018-04-12T05:12:10.595Z,39.43
2018-04-12T05:13:10.613Z,39.81
2018-04-12T05:14:10.651Z,39.92
2018-04-12T05:15:10.402Z,39.81
2018-04-12T05:16:10.677Z,39.62
2018-04-12T05:17:10.701Z,39.83
2018-04-12T05:18:10.723Z,39.72
2018-04-12T05:19:10.494Z,39.73
2018-04-12T05:20:10.764Z,39.83
2018-04-12T05:21:10.584Z,39.54
2018-04-12T05:22:10.554Z,39.73
2018-04-12T05:23:10.833Z,39.54
2018-04-12T05:24:10.850Z,39.73
2018-04-12T05:25:10.871Z,39.73
2018-04-12T05:26:10.892Z,39.73
2018-04-12T05:27:10.663Z,39.73
2018-04-12T05:28:10.996Z,39.54
2018-04-12T05:29:10.961Z,39.35
2018-04-12T05:30:10.982Z,39.64
2018-04-12T05:31:11.002Z,39.54
2018-04-12T05:32:11.025Z,39.35
2018-04-12T05:33:11.134Z,39.25
2018-04-12T05:34:10.822Z,39.54
2018-04-12T05:35:10.840Z,39.64
2018-04-12T05:36:10.859Z,39.92
2018-04-12T05:37:11.138Z,39.54
2018-04-12T05:38:11.161Z,39.35
2018-04-12T05:39:11.178Z,39.45
2018-04-12T05:40:10.947Z,39.45
2018-04-12T05:41:11.225Z,39.73
2018-04-12T05:42:11.248Z,39.16
2018-04-12T05:43:11.317Z,38.96
2018-04-12T05:44:11.286Z,39.25
2018-04-12T05:45:11.309Z,39.35
2018-04-12T05:46:11.331Z,38.96
2018-04-12T05:47:11.355Z,38.87
2018-04-12T05:48:11.116Z,38.96
2018-04-12T05:49:11.410Z,38.87
2018-04-12T05:50:11.423Z,38.89
2018-04-12T05:51:11.186Z,38.98
2018-04-12T05:52:11.469Z,38.96
2018-04-12T05:53:11.229Z,38.68
2018-04-12T05:54:11.507Z,38.39
2018-04-12T05:55:11.529Z,38.41
2018-04-12T05:56:11.551Z,38.12
2018-04-12T05:57:11.317Z,38.32
2018-04-12T05:58:11.643Z,38.12
2018-04-12T05:59:11.614Z,37.93
2018-04-12T06:00:11.636Z,37.84
2018-04-12T06:01:11.668Z,37.93
2018-04-12T06:02:11.677Z,37.74
2018-04-12T06:03:11.506Z,37.93
2018-04-12T06:04:11.723Z,37.74
2018-04-12T06:05:11.492Z,37.74
2018-04-12T06:06:11.770Z,37.93
2018-04-12T06:07:11.794Z,37.65
2018-04-12T06:08:11.812Z,37.76
2018-04-12T06:09:11.582Z,37.26
2018-04-12T06:10:11.604Z,37.76
2018-04-12T06:11:11.877Z,37.74
2018-04-12T06:12:11.894Z,37.85
2018-04-12T06:13:11.988Z,37.85
2018-04-12T06:14:11.940Z,37.85
2018-04-12T06:15:11.961Z,37.74
2018-04-12T06:16:11.986Z,37.55
2018-04-12T06:17:12.007Z,38.03
2018-04-12T06:18:12.089Z,37.16
2018-04-12T06:19:12.054Z,37.16
2018-04-12T06:20:12.075Z,37.28
2018-04-12T06:21:12.095Z,37.18
2018-04-12T06:22:12.118Z,36.99
2018-04-12T06:23:11.891Z,36.71
2018-04-12T06:24:12.163Z,36.51
2018-04-12T06:25:12.192Z,36.8
2018-04-12T06:26:12.212Z,36.51
2018-04-12T06:27:12.244Z,36.61
2018-04-12T06:28:12.268Z,36.44
2018-04-12T06:29:12.030Z,36.51
2018-04-12T06:30:12.308Z,36.51
2018-04-12T06:31:12.337Z,36.61
2018-04-12T06:32:12.352Z,35.94
2018-04-12T06:33:12.173Z,36.24
2018-04-12T06:34:12.395Z,36.22
2018-04-12T06:35:12.422Z,36.24
2018-04-12T06:36:12.188Z,36.24
2018-04-12T06:37:12.468Z,36.05
2018-04-12T06:38:12.231Z,36.34
2018-04-12T06:39:12.509Z,36.05
2018-04-12T06:40:12.279Z,35.86
2018-04-12T06:41:12.557Z,36.15
2018-04-12T06:42:12.578Z,35.77
2018-04-12T06:43:12.650Z,35.57
2018-04-12T06:44:12.627Z,35.48
2018-04-12T06:45:12.655Z,35.57
2018-04-12T06:46:12.673Z,35.86
2018-04-12T06:47:12.693Z,35.02
2018-04-12T06:48:12.460Z,35.11
2018-04-12T06:49:12.489Z,34.92
2018-04-12T06:50:12.752Z,34.53
2018-04-12T06:51:12.781Z,34.34
2018-04-12T06:52:12.806Z,33.96
2018-04-12T06:53:12.825Z,34.15
2018-04-12T06:54:12.850Z,33.98
2018-04-12T06:55:12.872Z,33.98
2018-04-12T06:56:12.898Z,33.88
2018-04-12T06:57:12.925Z,33.69
2018-04-12T06:58:12.993Z,33.59
2018-04-12T06:59:12.711Z,33.69
2018-04-12T07:00:12.987Z,33.69
2018-04-12T07:01:13.008Z,33.4
2018-04-12T07:02:13.031Z,33.4
2018-04-12T07:03:12.802Z,33.4
2018-04-12T07:04:13.078Z,33.21
2018-04-12T07:05:13.101Z,33.4
2018-04-12T07:06:13.130Z,33.11
2018-04-12T07:07:13.148Z,32.73
2018-04-12T07:08:12.917Z,32.82
2018-04-12T07:09:13.202Z,32.73
2018-04-12T07:10:12.962Z,32.25
2018-04-12T07:11:13.240Z,32.84
2018-04-12T07:12:13.270Z,32.46
2018-04-12T07:13:13.341Z,32.84
2018-04-12T07:14:13.058Z,32.65
2018-04-12T07:15:13.345Z,32.36
2018-04-12T07:16:13.558Z,32.65
2018-04-12T07:17:13.377Z,32.07
2018-04-12T07:18:13.400Z,32.07
2018-04-12T07:19:13.459Z,31.8
2018-04-12T07:20:13.463Z,31.99
2018-04-12T07:21:13.476Z,31.9
2018-04-12T07:22:13.243Z,31.7
2018-04-12T07:23:13.524Z,31.99
2018-04-12T07:24:13.546Z,32.18
2018-04-12T07:25:13.569Z,31.51
2018-04-12T07:26:13.590Z,31.23
2018-04-12T07:27:13.613Z,31.13
2018-04-12T07:28:13.435Z,30.74
2018-04-12T07:29:13.660Z,30.76
2018-04-12T07:30:13.692Z,31.05
2018-04-12T07:31:13.714Z,30.95
2018-04-12T07:32:13.737Z,30.66
2018-04-12T07:33:13.761Z,30.57
2018-04-12T07:34:13.784Z,30.29
2018-04-12T07:35:13.811Z,30.19
2018-04-12T07:36:13.835Z,30.1
2018-04-12T07:37:13.860Z,30.1
2018-04-12T07:38:14.207Z,30.1
2018-04-12T07:39:13.909Z,29.81
2018-04-12T07:40:13.678Z,29.91
2018-04-12T07:41:13.958Z,30.1
2018-04-12T07:42:13.982Z,29.91
2018-04-12T07:43:13.810Z,29.63
2018-04-12T07:44:14.031Z,29.35
2018-04-12T07:45:14.059Z,28.96
2018-04-12T07:46:13.824Z,28.77
2018-04-12T07:47:14.107Z,28.67
2018-04-12T07:48:14.130Z,28.67
2018-04-12T07:49:14.154Z,28.48
2018-04-12T07:50:14.178Z,28.48
2018-04-12T07:51:14.202Z,28.02
2018-04-12T07:52:14.229Z,28.2
2018-04-12T07:53:14.256Z,27.82
2018-04-12T07:54:14.285Z,27.82
2018-04-12T07:55:14.308Z,27.64
2018-04-12T07:56:14.327Z,27.26
2018-04-12T07:57:14.098Z,27.26
2018-04-12T07:58:14.426Z,26.87
2018-04-12T07:59:14.402Z,26.78
2018-04-12T08:00:14.449Z,27.06
2018-04-12T08:01:14.452Z,26.58
2018-04-12T08:02:14.499Z,26.97
2018-04-12T08:03:14.501Z,26.68
2018-04-12T08:04:14.537Z,26.78
2018-04-12T08:05:14.554Z,26.78
2018-04-12T08:06:14.589Z,27.16
2018-04-12T08:07:14.620Z,26.97
2018-04-12T08:08:14.633Z,26.58
2018-04-12T08:09:14.401Z,26.78
2018-04-12T08:10:14.426Z,26.68
2018-04-12T08:11:14.473Z,26.48
2018-04-12T08:12:14.731Z,26
2018-04-12T08:13:14.808Z,26.02
2018-04-12T08:14:14.529Z,25.73
2018-04-12T08:15:14.829Z,25.92
2018-04-12T08:16:14.912Z,25.24
2018-04-12T08:17:14.850Z,25.54
2018-04-12T08:18:14.631Z,25.34
2018-04-12T08:19:14.909Z,25.54
2018-04-12T08:20:14.937Z,25.34
2018-04-12T08:21:14.710Z,25.92
2018-04-12T08:22:14.739Z,25.34
2018-04-12T08:23:15.016Z,25.55
2018-04-12T08:24:14.788Z,25.55
2018-04-12T08:25:14.814Z,25.45
2018-04-12T08:26:14.836Z,24.97
2018-04-12T08:27:15.120Z,24.58
2018-04-12T08:28:14.888Z,24.87
2018-04-12T08:29:15.170Z,24.77
2018-04-12T08:30:15.202Z,24.39
2018-04-12T08:31:15.226Z,24.77
2018-04-12T08:32:15.246Z,24.49
2018-04-12T08:33:15.021Z,24.68
2018-04-12T08:34:15.300Z,24.68
2018-04-12T08:35:15.325Z,24.6
2018-04-12T08:36:15.098Z,24.5
2018-04-12T08:37:15.379Z,24.11
2018-04-12T08:38:15.401Z,23.54
2018-04-12T08:39:15.432Z,23.92
2018-04-12T08:40:15.456Z,23.24
2018-04-12T08:41:15.229Z,23.07
2018-04-12T08:42:15.510Z,22.87
2018-04-12T08:43:15.280Z,22.49
2018-04-12T08:44:15.560Z,22.77
2018-04-12T08:45:15.583Z,23.07
2018-04-12T08:46:15.611Z,22.58
2018-04-12T08:47:15.637Z,22.87
2018-04-12T08:48:15.420Z,21.92
2018-04-12T08:49:15.692Z,21.53
2018-04-12T08:50:15.718Z,20.95
2018-04-12T08:51:15.747Z,20.86
2018-04-12T08:52:15.517Z,20.47
2018-04-12T08:53:15.800Z,20.95
2018-04-12T08:54:15.828Z,20.95
2018-04-12T08:55:15.851Z,20.66
2018-04-12T08:56:15.878Z,20.56
2018-04-12T08:57:15.960Z,19.9
2018-04-12T08:58:15.939Z,20.28
2018-04-12T08:59:15.958Z,20.28
2018-04-12T09:00:15.985Z,20.38
2018-04-12T09:01:15.773Z,19.7
2018-04-12T09:02:16.036Z,19.62
2018-04-12T09:03:16.069Z,19.43
2018-04-12T09:04:15.844Z,19.43
2018-04-12T09:05:15.864Z,19.34
2018-04-12T09:06:16.146Z,19.15
2018-04-12T09:07:16.172Z,19.54
2018-04-12T09:08:15.947Z,19.06
2018-04-12T09:09:16.220Z,18.48
2018-04-12T09:10:16.249Z,18.57
2018-04-12T09:11:16.276Z,18.57
2018-04-12T09:12:16.086Z,18.59
2018-04-12T09:13:16.332Z,18.39
2018-04-12T09:14:16.108Z,18.1
2018-04-12T09:15:16.131Z,18.19
2018-04-12T09:16:16.416Z,17.52
2018-04-12T09:17:16.189Z,18.1
2018-04-12T09:18:16.462Z,17.71
2018-04-12T09:19:16.494Z,18.1
2018-04-12T09:20:16.601Z,18.29
2018-04-12T09:21:16.562Z,18.39
2018-04-12T09:22:16.587Z,18.77
2018-04-12T09:23:16.615Z,18.49
2018-04-12T09:24:16.641Z,18.49
2018-04-12T09:25:16.666Z,18.87
2018-04-12T09:26:16.694Z,18.59
2018-04-12T09:27:16.728Z,18.69
2018-04-12T09:28:16.499Z,18.98
2018-04-12T09:29:16.777Z,18.59
2018-04-12T09:30:16.806Z,18.59
2018-04-12T09:31:16.834Z,18.79
2018-04-12T09:32:16.867Z,18.41
2018-04-12T09:33:16.668Z,18.12
2018-04-12T09:34:16.924Z,17.44
2018-04-12T09:35:16.699Z,17.54
2018-04-12T09:36:16.728Z,16.78
2018-04-12T09:37:17.011Z,16.3
2018-04-12T09:38:16.783Z,16.39
2018-04-12T09:39:17.073Z,16.39
2018-04-12T09:40:16.841Z,16.3
2018-04-12T09:41:17.136Z,15.81
2018-04-12T09:42:17.156Z,16.09
2018-04-12T09:43:17.187Z,15.71
2018-04-12T09:44:17.210Z,16.11
2018-04-12T09:45:17.248Z,16.19
2018-04-12T09:46:17.349Z,16.39
2018-04-12T09:47:17.049Z,16.69
2018-04-12T09:48:17.332Z,15.82
2018-04-12T09:49:17.543Z,15.92
2018-04-12T09:50:17.395Z,15.15
2018-04-12T09:51:17.166Z,15.25
2018-04-12T09:52:17.449Z,14.86
2018-04-12T09:53:17.478Z,15.34
2018-04-12T09:54:17.510Z,15.25
2018-04-12T09:55:17.538Z,14.67
2018-04-12T09:56:17.569Z,14.87
2018-04-12T09:57:17.602Z,13.81
2018-04-12T09:58:17.379Z,14.39
2018-04-12T09:59:17.674Z,13.81
2018-04-12T10:00:17.692Z,14.1
2018-04-12T10:01:17.753Z,14.4
2018-04-12T10:02:17.552Z,14.78
2018-04-12T10:03:17.786Z,14.11
2018-04-12T10:04:17.816Z,14.21
2018-04-12T10:05:17.848Z,14.4
2018-04-12T10:06:17.879Z,13.92
2018-04-12T10:07:17.656Z,14.89
2018-04-12T10:08:17.946Z,14.51
2018-04-12T10:09:17.717Z,14.89
2018-04-12T10:10:18.005Z,14.89
2018-04-12T10:11:17.781Z,14.5
2018-04-12T10:12:18.066Z,14.69
2018-04-12T10:13:17.842Z,15.08
2018-04-12T10:14:17.873Z,14.5
2018-04-12T10:15:17.905Z,14.78
2018-04-12T10:16:18.190Z,15.07
2018-04-12T10:17:18.272Z,15.55
2018-04-12T10:18:17.998Z,15.35
2018-04-12T10:19:18.282Z,15.07
2018-04-12T10:20:18.316Z,14.88
2018-04-12T10:21:18.089Z,14.59
2018-04-12T10:22:18.376Z,14.69
2018-04-12T10:23:18.406Z,15.47
2018-04-12T10:24:18.443Z,15.27
2018-04-12T10:25:18.463Z,15.07
2018-04-12T10:26:18.245Z,15.27
2018-04-12T10:27:18.274Z,15.37
2018-04-12T10:28:18.305Z,15.36
2018-04-12T10:29:18.334Z,14.97
2018-04-12T10:30:18.625Z,14.98
2018-04-12T10:31:18.649Z,14.69
2018-04-12T10:32:18.730Z,14.69
2018-04-12T10:33:18.712Z,13.53
2018-04-12T10:34:18.751Z,13.34
2018-04-12T10:35:18.521Z,13.73
2018-04-12T10:36:18.806Z,13.73
2018-04-12T10:37:18.834Z,13.34
2018-04-12T10:38:18.868Z,13.92
2018-04-12T10:39:18.939Z,13.73
2018-04-12T10:40:18.677Z,13.82
2018-04-12T10:41:18.965Z,13.82
2018-04-12T10:42:19.041Z,13.63
2018-04-12T10:43:19.022Z,13.82
2018-04-12T10:44:19.056Z,13.53
2018-04-12T10:45:19.085Z,13.92
2018-04-12T10:46:19.116Z,13.43
2018-04-12T10:47:19.145Z,13.63
2018-04-12T10:48:19.194Z,13.43
2018-04-12T10:49:19.204Z,13.82
2018-04-12T10:50:19.243Z,13.53
2018-04-12T10:51:19.014Z,14.02
2018-04-12T10:52:19.045Z,14.11
2018-04-12T10:53:19.073Z,14.59
2018-04-12T10:54:19.361Z,14.78
2018-04-12T10:55:19.139Z,14.39
2018-04-12T10:56:19.425Z,14.49
2018-04-12T10:57:19.510Z,14.69
2018-04-12T10:58:19.229Z,13.91
2018-04-12T10:59:19.568Z,14.21
2018-04-12T11:00:19.540Z,13.73
2018-04-12T11:01:19.570Z,13.25
2018-04-12T11:02:19.601Z,12.87
2018-04-12T11:03:19.389Z,12.3
2018-04-12T11:04:19.671Z,12.11
2018-04-12T11:05:19.458Z,11.62
2018-04-12T11:06:19.739Z,10.74
2018-04-12T11:07:19.526Z,10.74
2018-04-12T11:08:19.814Z,10.85
2018-04-12T11:09:19.838Z,10.75
2018-04-12T11:10:19.615Z,10.94
2018-04-12T11:11:19.649Z,11.04
2018-04-12T11:12:19.786Z,10.94
2018-04-12T11:13:19.964Z,10.46
2018-04-12T11:14:20.000Z,9.98
2018-04-12T11:15:20.031Z,10.18
2018-04-12T11:16:19.815Z,9.89
2018-04-12T11:17:20.105Z,10.09
2018-04-12T11:18:20.213Z,9.99
2018-04-12T11:19:19.914Z,10.09
2018-04-12T11:20:20.212Z,9.8
2018-04-12T11:21:20.270Z,9.8
2018-04-12T11:22:20.269Z,10.28
2018-04-12T11:23:20.385Z,9.69
2018-04-12T11:24:20.334Z,9.79
2018-04-12T11:25:20.156Z,9.69
2018-04-12T11:26:20.404Z,10.07
2018-04-12T11:27:20.436Z,10.55
2018-04-12T11:28:20.215Z,10.65
2018-04-12T11:29:20.631Z,10.75
2018-04-12T11:30:20.542Z,11.23
2018-04-12T11:31:20.316Z,11.04
2018-04-12T11:32:20.604Z,11.04
2018-04-12T11:33:20.683Z,11.82
2018-04-12T11:34:20.772Z,10.94
2018-04-12T11:35:20.770Z,11.14
2018-04-12T11:36:20.729Z,11.13
2018-04-12T11:37:20.763Z,11.33
2018-04-12T11:38:20.799Z,11.23
2018-04-12T11:39:20.827Z,11.82
2018-04-12T11:40:20.873Z,11.33
2018-04-12T11:41:20.638Z,11.63
2018-04-12T11:42:20.927Z,11.14
2018-04-12T11:43:20.965Z,10.75
2018-04-12T11:44:21.042Z,11.82
2018-04-12T11:45:20.816Z,11.91
2018-04-12T11:46:21.057Z,12.2
2018-04-12T11:47:21.101Z,12.1
2018-04-12T11:48:20.864Z,12.68
2018-04-12T11:49:20.898Z,12.29
2018-04-12T11:50:21.204Z,12.48
2018-04-12T11:51:21.222Z,13.35
2018-04-12T11:52:21.253Z,13.06
2018-04-12T11:53:21.030Z,13.06
2018-04-12T11:54:21.317Z,13.26
2018-04-12T11:55:21.348Z,12.67
2018-04-12T11:56:21.132Z,12.66
2018-04-12T11:57:21.410Z,12.57
2018-04-12T11:58:21.187Z,12
2018-04-12T11:59:21.525Z,12.1
2018-04-12T12:00:21.253Z,11.71
2018-04-12T12:01:21.284Z,11.32
2018-04-12T12:02:21.641Z,12.01
2018-04-12T12:03:21.394Z,11.91
2018-04-12T12:04:21.631Z,11.62
2018-04-12T12:05:21.665Z,11.13
2018-04-12T12:06:21.696Z,10.94
2018-04-12T12:07:21.730Z,10.55
2018-04-12T12:08:21.514Z,10.75
2018-04-12T12:09:21.793Z,9.88
2018-04-12T12:10:21.827Z,10.18
2018-04-12T12:11:21.859Z,10.28
2018-04-12T12:12:21.994Z,9.41
2018-04-12T12:13:21.925Z,9.7
2018-04-12T12:14:22.007Z,9.61
2018-04-12T12:15:22.015Z,8.92
2018-04-12T12:16:22.021Z,9.02
2018-04-12T12:17:22.057Z,8.92
2018-04-12T12:18:21.836Z,9.02
2018-04-12T12:19:22.118Z,8.82
2018-04-12T12:20:22.151Z,8.53
2018-04-12T12:21:21.932Z,9.01
2018-04-12T12:22:22.219Z,8.43
2018-04-12T12:23:22.253Z,7.74
2018-04-12T12:24:22.284Z,7.56
2018-04-12T12:25:22.320Z,7.35
2018-04-12T12:26:22.356Z,7.26
2018-04-12T12:27:22.391Z,6.96
2018-04-12T12:28:22.422Z,6.47
2018-04-12T12:29:22.253Z,6.47
2018-04-12T12:30:22.493Z,5.98
2018-04-12T12:31:22.524Z,6.76
2018-04-12T12:32:22.557Z,6.37
2018-04-12T12:33:22.591Z,5.78
2018-04-12T12:34:22.631Z,6.27
2018-04-12T12:35:22.652Z,5.4
2018-04-12T12:36:22.435Z,5.89
2018-04-12T12:37:22.723Z,5.49
2018-04-12T12:38:22.759Z,5.88
2018-04-12T12:39:22.789Z,5.59
2018-04-12T12:40:22.829Z,5.2
2018-04-12T12:41:22.857Z,5.3
2018-04-12T12:42:22.892Z,4.52
2018-04-12T12:43:22.936Z,5.01
2018-04-12T12:44:23.012Z,4.81
2018-04-12T12:45:22.996Z,4.71
2018-04-12T12:46:22.783Z,4.81
2018-04-12T12:47:23.070Z,5.49
2018-04-12T12:48:23.103Z,4.9
2018-04-12T12:49:22.881Z,4.8
2018-04-12T12:50:22.908Z,4.71
2018-04-12T12:51:23.195Z,4.22
2018-04-12T12:52:23.242Z,4.22
2018-04-12T12:53:23.271Z,3.83
2018-04-12T12:54:23.351Z,3.83
2018-04-12T12:55:23.340Z,3.93
2018-04-12T12:56:23.379Z,3.92
2018-04-12T12:57:23.418Z,3.73